»·PEaware :: DAL2002 KBOI-KSEA

DAL2002 :: KBOI-KSEA

FLIGHT INFORMATION

Flight Status: Arrived
Operator:
Delta Air Lines
More flights by this operator :: More flights under this callsign
Pilot: Adrian B. (13026)
Aircraft: BOEING 737-900
(B739)
More flights by this aircraft type
Origin: KBOI Boise Air Terminal/Gowen
United States
Destination: KSEA Seattle-Tacoma Intl
United States
More flights between these airports :: More routes between these airports
Route: BOI3 LICKS PREIS PDT CHINS3
File this flight plan on PilotEdge
Remarks: PBN / A1B1C1D1S1S2 DOF / 180730 REG / N922SB EET / KZSE0021 OPR / DAL PER / D RMK / TCAS SIMBRIEF
Altitude:
(Current/Filed)
40,000ft
Speed:
(Current/Filed)
447kts
Departed: 30-Jul-18 02:29 PM
Arrived: 30-Jul-18 03:36 PM
Distance/Time
Traveled:
345nm/1:06
Distance/Time
To Go:
Arrived

Flight Plot

Page will automatically refresh every two minutes.

Flight plan parsing failed; only flown route is shown


Map Options




Map Legend


Flown Route
Filed Route
Departure Airport
Arrival Airport
Navaid (VOR, NDB)
Fix

Horizontal Profiles

Position Reports

Time Latitude Longitude Heading Altitude Ground
Speed
30-Jul-18 13:50 43.567185 -116.222743 100 2879ft 0kts
30-Jul-18 13:51 43.567185 -116.222743 100 2879ft 0kts
30-Jul-18 13:52 43.567185 -116.222743 100 2879ft 0kts
30-Jul-18 13:53 43.567185 -116.222743 100 2879ft 0kts
30-Jul-18 13:54 43.567185 -116.222743 100 2879ft 0kts
30-Jul-18 13:55 43.567185 -116.222743 100 2879ft 0kts
30-Jul-18 13:56 43.567185 -116.222743 100 2879ft 0kts
30-Jul-18 13:57 43.567185 -116.222743 100 2879ft 0kts
30-Jul-18 13:58 43.567185 -116.222743 100 2879ft 0kts
30-Jul-18 13:59 43.567185 -116.222743 100 2879ft 0kts
30-Jul-18 14:00 43.567185 -116.222743 100 2879ft 0kts
30-Jul-18 14:01 43.567185 -116.222743 100 2879ft 0kts
30-Jul-18 14:02 43.567185 -116.222743 100 2879ft 0kts
30-Jul-18 14:03 43.567185 -116.222743 100 2879ft 0kts
30-Jul-18 14:04 43.567185 -116.222743 100 2879ft 0kts
30-Jul-18 14:05 43.567185 -116.222743 100 2879ft 0kts
30-Jul-18 14:06 43.567185 -116.222743 100 2879ft 0kts
30-Jul-18 14:07 43.567185 -116.222743 100 2879ft 0kts
30-Jul-18 14:08 43.567185 -116.222743 100 2879ft 0kts
30-Jul-18 14:09 43.567185 -116.222743 100 2879ft 0kts
30-Jul-18 14:10 43.567185 -116.222743 100 2879ft 0kts
30-Jul-18 14:11 43.567185 -116.222743 100 2879ft 0kts
30-Jul-18 14:12 43.567185 -116.222743 100 2879ft 0kts
30-Jul-18 14:13 43.567185 -116.222743 100 2879ft 0kts
30-Jul-18 14:14 43.567185 -116.222743 100 2879ft 0kts
30-Jul-18 14:15 43.567185 -116.222743 100 2879ft 0kts
30-Jul-18 14:16 43.567185 -116.222743 100 2879ft 0kts
30-Jul-18 14:17 43.567185 -116.222743 100 2879ft 0kts
30-Jul-18 14:18 43.567185 -116.222743 100 2879ft 0kts
30-Jul-18 14:19 43.567185 -116.222744 100 2879ft 0kts
30-Jul-18 14:20 43.567555 -116.223043 202 2879ft 2kts
30-Jul-18 14:21 43.567645 -116.222974 210 2879ft 0kts
30-Jul-18 14:22 43.567645 -116.222974 210 2879ft 0kts
30-Jul-18 14:23 43.567267 -116.223222 205 2879ft 0kts
30-Jul-18 14:24 43.566619 -116.222842 116 2879ft 9kts
30-Jul-18 14:25 43.564641 -116.217062 115 2879ft 21kts
30-Jul-18 14:26 43.561949 -116.209179 115 2879ft 23kts
30-Jul-18 14:27 43.559667 -116.202583 128 2879ft 6kts
30-Jul-18 14:28 43.559516 -116.202439 166 2879ft 0kts
30-Jul-18 14:29 43.559135 -116.204464 295 2879ft 19kts
30-Jul-18 14:30 43.575505 -116.255054 296 4363ft 209kts
30-Jul-18 14:31 43.600284 -116.335820 291 7884ft 245kts
30-Jul-18 14:32 43.624900 -116.423793 292 11778ft 260kts
30-Jul-18 14:33 43.664785 -116.509878 336 14737ft 300kts
30-Jul-18 14:34 43.750761 -116.549365 341 15999ft 342kts
30-Jul-18 14:35 43.843119 -116.590187 340 19365ft 355kts
30-Jul-18 14:36 43.938701 -116.632593 340 22506ft 369kts
30-Jul-18 14:37 44.036235 -116.676078 338 25276ft 382kts
30-Jul-18 14:38 44.133944 -116.729444 323 27753ft 389kts
30-Jul-18 14:39 44.217484 -116.824617 310 30208ft 391kts
30-Jul-18 14:40 44.291527 -116.932617 310 32879ft 383kts
30-Jul-18 14:41 44.364742 -117.038188 309 35053ft 380kts
30-Jul-18 14:42 44.438102 -117.143719 309 36816ft 379kts
30-Jul-18 14:43 44.501267 -117.234453 309 38141ft 379kts
30-Jul-18 14:44 44.581162 -117.349068 310 39563ft 379kts
30-Jul-18 14:45 44.655742 -117.455982 310 40184ft 394kts
30-Jul-18 14:46 44.735604 -117.570195 310 40173ft 421kts
30-Jul-18 14:47 44.815830 -117.684689 310 40177ft 420kts
30-Jul-18 14:48 44.897607 -117.801465 310 40175ft 421kts
30-Jul-18 14:49 44.979739 -117.918531 310 40174ft 420kts
30-Jul-18 14:50 45.061425 -118.034763 309 40153ft 414kts
30-Jul-18 14:51 45.140321 -118.146926 309 40133ft 410kts
30-Jul-18 14:52 45.220886 -118.261366 309 40133ft 411kts
30-Jul-18 14:53 45.301583 -118.375800 309 40116ft 411kts
30-Jul-18 14:54 45.382477 -118.490359 309 40067ft 411kts
30-Jul-18 14:55 45.463374 -118.604786 309 40030ft 411kts
30-Jul-18 14:56 45.541886 -118.715812 309 40039ft 411kts
30-Jul-18 14:57 45.623037 -118.830493 309 40038ft 411kts
30-Jul-18 14:58 45.704469 -118.945668 306 40036ft 414kts
30-Jul-18 14:59 45.778493 -119.070453 303 40033ft 415kts
30-Jul-18 15:00 45.852250 -119.196200 303 40000ft 414kts
30-Jul-18 15:01 45.926354 -119.322690 303 39989ft 414kts
30-Jul-18 15:02 45.999911 -119.448619 303 39985ft 414kts
30-Jul-18 15:03 46.073452 -119.574980 303 39979ft 414kts
30-Jul-18 15:04 46.144322 -119.697288 303 39981ft 414kts
30-Jul-18 15:05 46.217872 -119.824922 303 39992ft 414kts
30-Jul-18 15:06 46.291167 -119.952614 303 40027ft 414kts
30-Jul-18 15:07 46.364152 -120.080291 303 40044ft 414kts
30-Jul-18 15:08 46.437312 -120.208817 303 40043ft 413kts
30-Jul-18 15:09 46.509807 -120.336720 303 40042ft 413kts
30-Jul-18 15:10 46.582188 -120.466135 299 39491ft 408kts
30-Jul-18 15:11 46.647064 -120.601971 298 36643ft 407kts
30-Jul-18 15:12 46.709427 -120.733745 298 33845ft 408kts
30-Jul-18 15:13 46.774670 -120.872206 298 30713ft 418kts
30-Jul-18 15:14 46.838828 -121.008558 298 28468ft 411kts
30-Jul-18 15:15 46.903034 -121.145731 298 26135ft 416kts
30-Jul-18 15:16 46.967870 -121.284893 299 23776ft 408kts
30-Jul-18 15:17 47.029704 -121.418135 300 21511ft 388kts
30-Jul-18 15:18 47.088721 -121.545935 301 19384ft 372kts
30-Jul-18 15:19 47.142517 -121.663011 300 17394ft 360kts
30-Jul-18 15:20 47.196796 -121.781588 301 15461ft 347kts
30-Jul-18 15:21 47.249925 -121.898182 301 14224ft 346kts
30-Jul-18 15:22 47.302562 -122.014151 302 13173ft 339kts
30-Jul-18 15:23 47.356865 -122.116170 338 12447ft 308kts
30-Jul-18 15:24 47.440720 -122.125811 358 11690ft 320kts
30-Jul-18 15:25 47.525257 -122.129592 359 9912ft 293kts
30-Jul-18 15:26 47.598603 -122.133892 358 8083ft 251kts
30-Jul-18 15:27 47.666521 -122.139289 358 6329ft 247kts
30-Jul-18 15:28 47.731175 -122.146562 339 5991ft 232kts
30-Jul-18 15:29 47.749261 -122.224033 238 5935ft 231kts
30-Jul-18 15:30 47.697249 -122.273703 205 4892ft 220kts
30-Jul-18 15:31 47.646896 -122.307248 186 3994ft 198kts
30-Jul-18 15:32 47.597119 -122.309779 180 3173ft 172kts
30-Jul-18 15:33 47.556382 -122.310241 180 2287ft 147kts
30-Jul-18 15:34 47.517419 -122.310786 179 1531ft 144kts
30-Jul-18 15:35 47.477430 -122.310890 180 753ft 144kts
30-Jul-18 15:36 47.446036 -122.311141 180 441ft 47kts
30-Jul-18 15:37 47.441013 -122.310411 154 441ft 27kts
30-Jul-18 15:38 47.438986 -122.307175 91 441ft 0kts
30-Jul-18 15:39 47.439887 -122.304948 91 441ft 12kts
30-Jul-18 15:40 47.439618 -122.301115 235 441ft 4kts
30-Jul-18 15:41 47.439548 -122.301264 235 441ft 0kts

Navigation Log

Ident Type
Flight plan parsing failed, navigation log unavailable